Time;durP1;ratioP1;P1;durP2;ratioP2;P2;SDS_P1;SDS_P2;PMS_P1;PMS_P2;Temp;Humidity;BMP_temperature;BMP_pressure;BME280_temperature;BME280_humidity;BME280_pressure;Samples;Min_cycle;Max_cycle;Signal;HPM_P1;HPM_P2
2021/11/30 00:00:00;;;;;;;25.52;17.20;;;2.80;99.90;;;;;;5025941;28;20484;-55
2021/11/30 00:02:25;;;;;;;25.17;17.23;;;2.90;99.90;;;;;;5030762;28;20041;-60
2021/11/30 00:04:51;;;;;;;25.33;16.98;;;3.00;99.90;;;;;;5030539;28;20036;-60
2021/11/30 00:07:17;;;;;;;23.98;16.60;;;2.90;99.90;;;;;;5031772;28;20033;-65
2021/11/30 00:12:13;;;;;;;26.15;17.02;;;2.70;99.90;;;;;;5032685;28;20080;-57
2021/11/30 00:14:40;;;;;;;27.25;16.00;;;2.70;99.90;;;;;;5030665;28;20041;-62
2021/11/30 00:17:07;;;;;;;22.48;15.38;;;2.70;99.90;;;;;;5027771;28;20128;-62
2021/11/30 00:19:34;;;;;;;22.42;15.77;;;2.70;99.90;;;;;;5030729;28;20025;-58
2021/11/30 00:22:00;;;;;;;23.33;15.73;;;2.80;99.90;;;;;;5030259;28;20026;-57
2021/11/30 00:24:29;;;;;;;20.20;13.80;;;2.90;99.90;;;;;;5007572;28;20034;-57
2021/11/30 00:26:55;;;;;;;21.85;14.30;;;2.70;99.90;;;;;;5031437;28;20552;-64
2021/11/30 00:29:21;;;;;;;24.13;15.02;;;2.70;99.90;;;;;;5035647;28;20076;-56
2021/11/30 00:31:46;;;;;;;22.13;13.43;;;2.70;99.90;;;;;;5034551;28;20039;-60
2021/11/30 00:34:12;;;;;;;20.50;13.88;;;2.80;99.90;;;;;;5031299;28;20115;-56
2021/11/30 00:36:38;;;;;;;21.80;14.30;;;2.80;99.90;;;;;;5034219;28;20048;-57
2021/11/30 00:39:04;;;;;;;19.45;13.52;;;2.80;99.90;;;;;;5031941;28;20044;-58
2021/11/30 00:41:30;;;;;;;23.02;13.82;;;2.70;99.90;;;;;;5004752;28;20048;-58
2021/11/30 00:43:56;;;;;;;19.73;13.48;;;2.60;99.90;;;;;;5015489;28;20029;-55
2021/11/30 00:46:37;;;;;;;18.38;12.93;;;2.60;99.90;;;;;;5034125;28;20027;-56
2021/11/30 00:49:04;;;;;;;20.52;13.68;;;2.60;99.90;;;;;;5033335;28;20021;-55
2021/11/30 00:51:31;;;;;;;20.70;13.40;;;2.60;99.90;;;;;;5015696;28;20068;-55
2021/11/30 00:53:57;;;;;;;20.58;13.60;;;2.50;99.90;;;;;;5029823;28;20167;-58
2021/11/30 00:56:23;;;;;;;20.23;13.98;;;2.60;99.90;;;;;;5015690;28;20044;-60
2021/11/30 00:58:49;;;;;;;19.85;13.30;;;2.50;99.90;;;;;;5031921;28;20115;-57
2021/11/30 01:01:15;;;;;;;20.75;13.85;;;2.60;99.90;;;;;;5031677;28;20793;-61
2021/11/30 01:03:42;;;;;;;21.27;14.10;;;2.60;99.90;;;;;;5032881;28;20069;-57
2021/11/30 01:06:08;;;;;;;17.70;11.93;;;2.60;99.90;;;;;;5031702;28;20374;-62
2021/11/30 01:08:34;;;;;;;18.92;12.68;;;2.60;99.90;;;;;;5015333;28;20038;-57
2021/11/30 01:11:01;;;;;;;17.50;12.30;;;2.60;99.90;;;;;;5007115;28;20047;-60
2021/11/30 01:13:29;;;;;;;16.70;11.98;;;2.60;99.90;;;;;;5031168;28;20056;-58
2021/11/30 01:15:55;;;;;;;16.35;12.07;;;2.60;99.90;;;;;;5032063;28;20037;-60
2021/11/30 01:18:21;;;;;;;15.63;11.25;;;2.50;99.90;;;;;;5028862;28;20508;-58
2021/11/30 01:20:46;;;;;;;15.98;11.35;;;2.50;99.90;;;;;;5013667;28;20040;-58
2021/11/30 01:23:12;;;;;;;15.35;11.57;;;2.40;99.90;;;;;;5031209;28;20393;-58
2021/11/30 01:25:38;;;;;;;16.25;11.00;;;2.50;99.90;;;;;;5026971;28;20072;-57
2021/11/30 01:28:04;;;;;;;15.43;10.50;;;2.40;99.90;;;;;;5013396;28;20030;-60
2021/11/30 01:30:30;;;;;;;15.52;11.43;;;2.50;99.90;;;;;;5012915;28;20036;-63
2021/11/30 01:32:56;;;;;;;15.75;10.85;;;2.50;99.90;;;;;;5026613;28;20095;-58
2021/11/30 01:35:21;;;;;;;15.38;10.25;;;2.40;99.90;;;;;;5034456;28;20048;-58
2021/11/30 01:37:48;;;;;;;16.13;10.20;;;2.40;99.90;;;;;;5033528;28;20037;-58
2021/11/30 01:40:18;;;;;;;16.05;10.10;;;2.30;99.90;;;;;;5033390;28;20443;-57
2021/11/30 01:42:46;;;;;;;15.43;10.25;;;2.20;99.90;;;;;;5033347;28;20073;-51
2021/11/30 01:45:23;;;;;;;15.02;10.82;;;2.20;99.90;;;;;;5033980;28;20098;-55
2021/11/30 01:49:09;;;;;;;15.50;10.40;;;2.20;99.90;;;;;;5017347;28;20082;-61
2021/11/30 01:50:40;;;;;;;14.73;10.75;;;2.20;99.90;;;;;;5033435;28;20044;-58
2021/11/30 01:53:08;;;;;;;15.57;10.43;;;2.20;99.90;;;;;;5033736;28;20026;-54
2021/11/30 01:55:34;;;;;;;14.43;10.15;;;2.20;99.90;;;;;;5033765;28;20167;-55
2021/11/30 01:58:00;;;;;;;14.25;11.00;;;2.20;99.90;;;;;;5034116;28;20034;-58
2021/11/30 02:00:26;;;;;;;16.13;10.93;;;2.20;99.90;;;;;;5032613;28;20057;-52
2021/11/30 02:02:52;;;;;;;16.15;10.65;;;2.20;99.90;;;;;;5033183;28;20110;-56
2021/11/30 02:05:18;;;;;;;15.32;10.30;;;2.20;99.90;;;;;;5033190;28;20396;-58
2021/11/30 02:07:45;;;;;;;14.98;9.77;;;2.20;99.90;;;;;;5033615;28;20037;-56
2021/11/30 02:10:13;;;;;;;15.20;10.18;;;2.10;99.90;;;;;;5031983;28;20517;-62
2021/11/30 02:12:41;;;;;;;15.02;9.85;;;2.10;99.90;;;;;;5033041;28;20048;-62
2021/11/30 02:15:11;;;;;;;15.50;9.70;;;2.10;99.90;;;;;;5033338;28;20072;-63
2021/11/30 02:17:37;;;;;;;14.65;9.43;;;2.10;99.90;;;;;;5033440;28;20397;-58
2021/11/30 02:20:05;;;;;;;14.43;10.43;;;2.10;99.90;;;;;;5033512;28;20036;-63
2021/11/30 02:22:31;;;;;;;14.55;9.77;;;2.10;99.90;;;;;;5032955;28;20042;-58
2021/11/30 02:24:56;;;;;;;14.65;10.07;;;2.10;99.90;;;;;;5033355;28;20111;-57
2021/11/30 02:27:23;;;;;;;13.05;9.13;;;2.10;99.90;;;;;;5019655;28;20435;-60
2021/11/30 02:29:49;;;;;;;14.55;9.70;;;2.20;99.90;;;;;;5032990;28;20970;-56
2021/11/30 02:32:15;;;;;;;13.77;9.27;;;2.20;99.90;;;;;;5033176;28;20076;-57
2021/11/30 02:34:41;;;;;;;13.60;8.02;;;2.30;99.90;;;;;;5032798;28;20073;-53
2021/11/30 02:37:11;;;;;;;13.55;9.00;;;2.20;99.90;;;;;;5032845;28;20069;-55
2021/11/30 02:39:37;;;;;;;13.70;9.07;;;2.20;99.90;;;;;;5032596;28;20042;-56
2021/11/30 02:42:05;;;;;;;12.93;9.05;;;2.20;99.90;;;;;;5032474;28;20041;-57
2021/11/30 02:44:32;;;;;;;12.85;9.23;;;2.20;99.90;;;;;;5033185;28;20036;-62
2021/11/30 02:47:10;;;;;;;12.45;8.70;;;2.20;99.90;;;;;;5033026;28;20033;-62
2021/11/30 02:49:38;;;;;;;12.35;8.18;;;2.20;99.90;;;;;;5033221;28;20037;-59
2021/11/30 02:52:09;;;;;;;13.32;8.57;;;2.30;99.90;;;;;;5033078;28;20034;-56
2021/11/30 02:54:38;;;;;;;12.80;8.05;;;2.30;99.90;;;;;;5032857;28;20033;-60
2021/11/30 02:57:06;;;;;;;11.32;8.02;;;2.30;99.90;;;;;;5032594;28;20128;-62
2021/11/30 02:59:35;;;;;;;10.07;7.68;;;2.40;99.90;;;;;;5032977;28;20481;-58
2021/11/30 03:02:09;;;;;;;13.32;8.05;;;2.40;99.90;;;;;;5031737;28;20041;-58
2021/11/30 03:04:35;;;;;;;14.70;9.23;;;2.40;99.90;;;;;;5030420;28;20116;-60
2021/11/30 03:07:00;;;;;;;13.27;8.55;;;2.50;99.90;;;;;;5033418;28;20062;-63
2021/11/30 03:09:26;;;;;;;13.32;8.32;;;2.60;99.90;;;;;;5015130;28;20576;-59
2021/11/30 03:11:54;;;;;;;13.05;9.00;;;2.50;99.90;;;;;;5014693;28;20061;-58
2021/11/30 03:14:20;;;;;;;13.27;9.32;;;2.60;99.90;;;;;;5032510;28;20390;-55
2021/11/30 03:16:48;;;;;;;11.98;8.30;;;2.60;99.90;;;;;;5032139;28;20520;-58
2021/11/30 03:19:16;;;;;;;14.60;9.30;;;2.70;99.90;;;;;;5012820;28;20540;-56
2021/11/30 03:21:42;;;;;;;15.43;10.35;;;2.60;99.90;;;;;;5003008;28;20033;-58
2021/11/30 03:24:08;;;;;;;13.13;9.13;;;2.60;99.90;;;;;;5014550;28;20029;-60
2021/11/30 03:26:34;;;;;;;15.27;11.25;;;2.60;99.90;;;;;;5015175;28;20041;-58
2021/11/30 03:28:59;;;;;;;17.40;11.82;;;2.50;99.90;;;;;;5032725;28;20393;-57
2021/11/30 03:34:12;;;;;;;18.58;12.07;;;2.40;99.90;;;;;;5016876;28;20061;-60
2021/11/30 03:36:39;;;;;;;19.38;12.52;;;2.30;99.90;;;;;;5032466;28;20034;-58
2021/11/30 03:39:08;;;;;;;19.88;12.38;;;2.20;99.90;;;;;;5031917;28;20390;-56
2021/11/30 03:41:34;;;;;;;22.38;14.18;;;2.20;99.90;;;;;;5032301;28;20180;-60
2021/11/30 03:44:05;;;;;;;19.23;13.00;;;2.20;99.90;;;;;;5032613;28;20129;-59
2021/11/30 03:46:31;;;;;;;20.98;13.02;;;2.10;99.90;;;;;;5032429;28;20033;-58
2021/11/30 03:48:58;;;;;;;22.13;14.13;;;2.20;99.90;;;;;;5014848;28;20033;-55
2021/11/30 03:51:24;;;;;;;20.23;13.02;;;2.20;99.90;;;;;;5031553;28;20036;-59
2021/11/30 03:53:50;;;;;;;21.60;13.88;;;2.20;99.90;;;;;;5032225;28;20046;-59
2021/11/30 03:56:16;;;;;;;21.85;13.57;;;2.10;99.90;;;;;;5031808;28;20053;-59
2021/11/30 03:58:42;;;;;;;18.73;12.15;;;2.10;99.90;;;;;;5032517;28;20103;-58
2021/11/30 04:01:08;;;;;;;21.60;13.02;;;2.20;99.90;;;;;;5035398;28;20105;-58
2021/11/30 04:03:34;;;;;;;20.75;13.82;;;2.20;99.90;;;;;;5036293;28;19920;-57
2021/11/30 04:06:01;;;;;;;20.40;12.60;;;2.20;99.90;;;;;;5036013;28;20119;-63
2021/11/30 04:08:27;;;;;;;18.17;12.57;;;2.20;99.90;;;;;;5035790;28;20092;-60
2021/11/30 04:10:53;;;;;;;22.55;13.55;;;2.30;99.90;;;;;;5034121;28;20026;-56
2021/11/30 04:13:19;;;;;;;21.77;12.43;;;2.30;99.90;;;;;;5035789;28;20392;-54
2021/11/30 04:15:45;;;;;;;21.13;12.88;;;2.30;99.90;;;;;;5017940;28;20052;-55
2021/11/30 04:18:10;;;;;;;21.77;12.18;;;2.40;99.90;;;;;;5035683;28;20079;-61
2021/11/30 04:20:36;;;;;;;23.75;12.65;;;2.40;99.90;;;;;;5018046;28;20098;-58
2021/11/30 04:23:03;;;;;;;18.77;12.07;;;2.40;99.90;;;;;;5036116;28;20033;-56
2021/11/30 04:25:28;;;;;;;19.98;13.07;;;2.40;99.90;;;;;;5035391;28;20026;-64
2021/11/30 04:27:54;;;;;;;21.00;13.13;;;2.50;99.90;;;;;;4998160;28;20099;-55
2021/11/30 04:30:20;;;;;;;17.25;11.77;;;2.50;99.90;;;;;;5015187;28;20034;-57
2021/11/30 04:32:46;;;;;;;15.82;11.05;;;2.60;99.90;;;;;;5015414;28;20041;-58
2021/11/30 04:35:12;;;;;;;17.95;11.80;;;2.60;99.90;;;;;;5015392;28;20393;-56
2021/11/30 04:37:38;;;;;;;19.13;11.73;;;2.70;99.90;;;;;;5015235;28;20032;-56
2021/11/30 04:40:09;;;;;;;21.73;13.63;;;2.70;99.90;;;;;;5014777;28;20460;-58
2021/11/30 04:42:36;;;;;;;17.13;11.98;;;2.80;99.90;;;;;;5015060;28;20042;-58
2021/11/30 04:45:06;;;;;;;17.52;12.23;;;2.80;99.90;;;;;;5015081;28;20030;-57
2021/11/30 04:47:35;;;;;;;19.25;12.95;;;2.80;99.90;;;;;;5014953;28;20113;-57
2021/11/30 04:50:05;;;;;;;20.95;12.95;;;2.80;99.90;;;;;;4997373;28;20025;-60
2021/11/30 04:52:32;;;;;;;19.50;12.65;;;2.90;99.90;;;;;;5015019;28;20395;-62
2021/11/30 04:54:58;;;;;;;20.13;12.60;;;2.90;99.90;;;;;;4997435;28;20125;-58
2021/11/30 04:57:24;;;;;;;18.08;12.00;;;3.00;99.90;;;;;;5014771;28;20554;-57
2021/11/30 04:59:50;;;;;;;20.70;13.80;;;3.00;99.90;;;;;;5032812;28;20041;-59
2021/11/30 05:02:16;;;;;;;17.05;11.75;;;3.00;99.90;;;;;;5034431;28;20025;-59
2021/11/30 05:04:42;;;;;;;20.02;12.43;;;3.00;99.90;;;;;;5034997;28;20037;-57
2021/11/30 05:07:09;;;;;;;20.67;12.38;;;3.10;99.90;;;;;;5017379;28;20090;-59
2021/11/30 05:09:35;;;;;;;19.85;13.25;;;3.10;99.90;;;;;;5034195;28;20029;-59
2021/11/30 05:12:01;;;;;;;20.92;13.15;;;3.10;99.90;;;;;;5034463;28;20033;-56
2021/11/30 05:14:27;;;;;;;17.92;12.98;;;3.10;99.90;;;;;;5033946;28;20171;-61
2021/11/30 05:16:53;;;;;;;19.77;13.40;;;3.20;99.90;;;;;;5016620;28;20049;-57
2021/11/30 05:19:18;;;;;;;20.45;14.52;;;3.30;99.90;;;;;;5034387;28;20037;-58
2021/11/30 05:21:44;;;;;;;18.35;12.52;;;3.20;99.90;;;;;;5034136;28;20527;-60
2021/11/30 05:24:10;;;;;;;18.80;12.95;;;3.30;99.90;;;;;;5000262;28;20150;-62
2021/11/30 05:26:36;;;;;;;19.75;14.43;;;3.40;99.90;;;;;;5033965;28;20160;-59
2021/11/30 05:29:04;;;;;;;17.45;13.00;;;3.40;99.90;;;;;;5034508;28;20025;-59
2021/11/30 05:31:29;;;;;;;18.77;13.65;;;3.50;99.90;;;;;;5035906;28;20035;-56
2021/11/30 05:33:56;;;;;;;20.20;14.45;;;3.40;99.90;;;;;;5035868;28;20132;-56
2021/11/30 05:36:22;;;;;;;16.63;12.27;;;3.40;99.90;;;;;;5034742;28;20087;-63
2021/11/30 05:38:48;;;;;;;17.65;12.98;;;3.50;99.90;;;;;;5034398;28;20037;-56
2021/11/30 05:41:14;;;;;;;21.00;12.60;;;3.50;99.90;;;;;;5033785;28;20037;-56
2021/11/30 05:43:40;;;;;;;15.85;12.15;;;3.60;99.90;;;;;;5033785;28;20116;-59
2021/11/30 05:46:06;;;;;;;14.57;11.68;;;3.60;99.90;;;;;;5016405;28;20041;-57
2021/11/30 05:48:32;;;;;;;13.40;10.98;;;3.50;99.90;;;;;;5034211;28;20068;-58
2021/11/30 05:50:59;;;;;;;17.48;11.75;;;3.60;99.90;;;;;;5033983;28;20072;-58
2021/11/30 05:53:24;;;;;;;15.85;11.80;;;3.50;99.90;;;;;;5033579;28;20101;-56
2021/11/30 05:55:56;;;;;;;16.58;12.05;;;3.40;99.90;;;;;;5016101;28;20140;-55
2021/11/30 05:58:21;;;;;;;18.92;11.75;;;3.40;99.90;;;;;;5033470;28;20042;-57
2021/11/30 06:00:48;;;;;;;11.93;9.57;;;3.30;99.90;;;;;;5015655;28;20558;-58
2021/11/30 06:03:29;;;;;;;15.05;10.32;;;3.30;99.90;;;;;;5032175;28;20079;-58
2021/11/30 06:05:55;;;;;;;12.30;9.30;;;3.40;99.90;;;;;;5032123;28;20486;-56
2021/11/30 06:08:21;;;;;;;9.88;8.55;;;3.30;99.90;;;;;;5015728;28;20661;-61
2021/11/30 06:10:46;;;;;;;9.07;7.10;;;3.40;99.90;;;;;;5032842;28;20033;-55
2021/11/30 06:13:12;;;;;;;9.05;6.72;;;3.40;99.90;;;;;;5033356;28;20362;-60
2021/11/30 06:15:38;;;;;;;6.63;5.93;;;3.40;99.90;;;;;;5033425;28;20052;-60
2021/11/30 06:18:03;;;;;;;8.50;5.88;;;3.40;99.90;;;;;;5033141;28;20026;-59
2021/11/30 06:20:29;;;;;;;8.00;6.00;;;3.40;99.90;;;;;;5032695;28;20084;-56
2021/11/30 06:22:55;;;;;;;9.88;5.90;;;3.40;99.90;;;;;;5032405;28;20128;-57
2021/11/30 06:25:21;;;;;;;7.03;5.53;;;3.40;99.90;;;;;;5015107;28;20041;-57
2021/11/30 06:27:47;;;;;;;6.22;5.07;;;3.30;99.90;;;;;;5033555;28;20033;-59
2021/11/30 06:30:13;;;;;;;9.75;5.55;;;3.30;99.90;;;;;;5031268;28;20033;-57
2021/11/30 06:32:39;;;;;;;4.43;3.95;;;3.30;99.90;;;;;;5033336;28;20044;-58
2021/11/30 06:35:06;;;;;;;5.65;4.53;;;3.20;99.90;;;;;;5033126;28;20048;-60
2021/11/30 06:37:33;;;;;;;6.35;4.20;;;3.20;99.90;;;;;;5031828;28;20400;-59
2021/11/30 06:39:59;;;;;;;5.57;4.03;;;3.20;99.90;;;;;;5026462;28;20030;-65
2021/11/30 06:42:25;;;;;;;5.13;4.22;;;3.20;99.90;;;;;;5013117;28;20358;-59
2021/11/30 06:44:51;;;;;;;6.05;3.65;;;3.20;99.90;;;;;;5012707;28;20123;-56
2021/11/30 06:47:17;;;;;;;5.53;4.22;;;3.20;99.90;;;;;;4994722;28;20119;-58
2021/11/30 06:49:43;;;;;;;6.70;3.47;;;3.20;99.90;;;;;;5005650;28;20499;-60
2021/11/30 06:52:09;;;;;;;4.95;3.53;;;3.10;99.90;;;;;;5031867;28;20053;-62
2021/11/30 06:54:35;;;;;;;4.22;3.40;;;3.10;99.90;;;;;;5031710;28;20489;-60
2021/11/30 06:57:01;;;;;;;4.28;3.38;;;3.10;99.90;;;;;;5031891;28;20489;-59
2021/11/30 06:59:28;;;;;;;6.22;3.33;;;3.10;99.90;;;;;;5017435;28;20044;-65
2021/11/30 07:01:54;;;;;;;5.18;3.58;;;3.10;99.90;;;;;;4994537;28;20497;-63
2021/11/30 07:04:21;;;;;;;5.28;3.38;;;3.10;99.90;;;;;;5011915;28;20045;-57
2021/11/30 07:09:21;;;;;;;4.75;3.10;;;3.10;99.90;;;;;;5012544;28;20446;-59
2021/11/30 07:14:32;;;;;;;3.65;2.70;;;3.10;99.90;;;;;;5011980;28;20038;-56
2021/11/30 07:16:59;;;;;;;3.58;2.70;;;3.10;99.90;;;;;;5019492;28;20124;-55
2021/11/30 07:19:25;;;;;;;3.60;2.80;;;3.10;99.90;;;;;;5031233;28;20044;-56
2021/11/30 07:21:50;;;;;;;3.63;2.65;;;3.10;99.90;;;;;;5007810;28;20704;-56
2021/11/30 07:24:16;;;;;;;2.92;2.60;;;3.10;99.90;;;;;;5004884;28;20026;-54
2021/11/30 07:26:42;;;;;;;3.88;2.90;;;3.20;99.90;;;;;;5022566;28;20068;-58
2021/11/30 07:29:07;;;;;;;3.17;2.88;;;3.10;99.90;;;;;;5019801;28;20029;-58
2021/11/30 07:31:34;;;;;;;3.58;2.80;;;3.10;99.90;;;;;;5027111;28;20546;-59
2021/11/30 07:34:00;;;;;;;3.05;2.72;;;3.10;99.90;;;;;;5032641;28;20512;-58
2021/11/30 07:36:27;;;;;;;2.90;2.60;;;3.10;99.90;;;;;;5034802;28;20382;-56
2021/11/30 07:38:53;;;;;;;5.40;3.00;;;3.10;99.90;;;;;;5035401;28;20505;-61
2021/11/30 07:41:19;;;;;;;4.05;2.65;;;3.20;99.90;;;;;;5029663;28;20060;-59
2021/11/30 07:43:46;;;;;;;2.88;2.47;;;3.20;99.90;;;;;;5008689;28;20025;-59
2021/11/30 07:46:12;;;;;;;4.35;2.80;;;3.20;99.90;;;;;;5024117;28;20054;-59
2021/11/30 07:48:38;;;;;;;4.15;2.90;;;3.20;99.90;;;;;;5007199;28;20033;-58
2021/11/30 07:51:06;;;;;;;3.40;2.65;;;3.10;99.90;;;;;;5026893;28;20405;-58
2021/11/30 07:53:32;;;;;;;4.03;2.60;;;3.20;99.90;;;;;;5031474;28;20030;-58
2021/11/30 07:55:58;;;;;;;3.58;2.80;;;3.10;99.90;;;;;;5036588;28;20060;-58
2021/11/30 07:58:24;;;;;;;3.10;2.80;;;3.10;99.90;;;;;;5019172;28;20030;-60
2021/11/30 08:00:51;;;;;;;3.38;2.60;;;3.20;99.90;;;;;;5033442;28;20042;-56
2021/11/30 08:03:18;;;;;;;2.58;2.38;;;3.20;99.90;;;;;;5027840;28;20025;-55
2021/11/30 08:05:45;;;;;;;3.50;2.55;;;3.20;99.90;;;;;;5026731;28;20057;-59
2021/11/30 08:08:10;;;;;;;3.92;2.50;;;3.20;99.90;;;;;;5029873;28;20037;-58
2021/11/30 08:10:36;;;;;;;3.03;2.65;;;3.20;99.90;;;;;;5026717;28;20107;-59
2021/11/30 08:13:02;;;;;;;2.70;2.35;;;3.30;99.90;;;;;;5035813;28;20030;-53
2021/11/30 08:15:27;;;;;;;3.30;2.58;;;3.20;99.90;;;;;;5035883;28;20067;-56
2021/11/30 08:17:53;;;;;;;3.15;2.30;;;3.20;99.90;;;;;;5035715;28;20072;-58
2021/11/30 08:20:19;;;;;;;3.15;2.42;;;3.20;99.90;;;;;;5034782;28;20145;-58
2021/11/30 08:22:45;;;;;;;3.88;2.50;;;3.20;99.90;;;;;;5028154;28;20025;-61
2021/11/30 08:25:12;;;;;;;2.35;2.15;;;3.20;99.90;;;;;;5026744;28;20025;-61
2021/11/30 08:27:39;;;;;;;2.80;2.38;;;3.30;99.90;;;;;;5023428;28;20030;-58
2021/11/30 08:30:08;;;;;;;3.63;2.60;;;3.20;99.90;;;;;;5030706;28;20046;-62
2021/11/30 08:32:36;;;;;;;3.67;2.75;;;3.20;99.90;;;;;;5006871;28;20045;-57
2021/11/30 08:35:03;;;;;;;3.40;2.85;;;3.30;99.90;;;;;;5024088;28;20053;-57
2021/11/30 08:37:32;;;;;;;3.22;2.92;;;3.20;99.90;;;;;;5026396;28;20021;-59
2021/11/30 08:39:58;;;;;;;2.97;2.50;;;3.20;99.90;;;;;;5025980;28;20025;-54
2021/11/30 08:42:24;;;;;;;2.53;2.28;;;3.30;99.90;;;;;;5022349;28;20061;-54
2021/11/30 08:44:51;;;;;;;4.70;2.60;;;3.20;99.90;;;;;;5023904;28;20425;-60
2021/11/30 08:47:19;;;;;;;3.35;2.58;;;3.30;99.90;;;;;;5011090;28;20025;-59
2021/11/30 08:49:45;;;;;;;2.65;2.45;;;3.30;99.90;;;;;;5022146;28;20113;-58
2021/11/30 08:52:16;;;;;;;3.13;2.78;;;3.20;99.90;;;;;;5008370;28;20048;-61
2021/11/30 08:54:42;;;;;;;3.58;2.60;;;3.20;99.90;;;;;;5027266;28;20041;-58
2021/11/30 08:57:08;;;;;;;3.42;2.60;;;3.30;99.90;;;;;;5031763;28;20501;-59
2021/11/30 08:59:34;;;;;;;2.72;2.40;;;3.30;99.90;;;;;;5022665;28;20065;-59
2021/11/30 09:02:01;;;;;;;4.07;2.50;;;3.30;99.90;;;;;;5007680;28;20030;-61
2021/11/30 09:04:27;;;;;;;3.00;2.33;;;3.30;99.90;;;;;;5033041;28;20064;-58
2021/11/30 09:06:53;;;;;;;3.67;2.78;;;3.30;99.90;;;;;;5032604;28;20490;-58
2021/11/30 09:09:19;;;;;;;2.45;2.25;;;3.30;99.90;;;;;;5028596;28;20417;-60
2021/11/30 09:11:45;;;;;;;2.95;2.65;;;3.40;99.90;;;;;;5028470;28;20500;-57
2021/11/30 09:14:11;;;;;;;3.58;2.05;;;3.40;99.90;;;;;;5025728;28;20076;-59
2021/11/30 09:16:37;;;;;;;2.80;2.55;;;3.50;99.90;;;;;;5024169;28;20045;-56
2021/11/30 09:19:04;;;;;;;2.90;2.35;;;3.40;99.90;;;;;;5006987;28;20163;-68
2021/11/30 09:21:30;;;;;;;5.38;2.45;;;3.40;99.90;;;;;;5027298;28;20076;-55
2021/11/30 09:23:57;;;;;;;2.22;2.00;;;3.40;99.90;;;;;;5027956;28;20056;-60
2021/11/30 09:26:23;;;;;;;2.58;2.35;;;3.50;99.90;;;;;;5027708;28;20432;-61
2021/11/30 09:28:49;;;;;;;2.97;2.10;;;3.60;99.90;;;;;;5023727;28;20394;-57
2021/11/30 09:31:15;;;;;;;2.30;2.10;;;3.60;99.90;;;;;;5028498;28;20524;-59
2021/11/30 09:33:43;;;;;;;4.10;2.05;;;3.70;99.90;;;;;;5027260;28;20049;-59
2021/11/30 09:36:11;;;;;;;2.10;1.90;;;3.60;99.90;;;;;;5022268;28;20041;-59
2021/11/30 09:38:38;;;;;;;2.58;2.08;;;3.70;99.90;;;;;;5025478;28;20040;-59
2021/11/30 09:41:04;;;;;;;2.08;1.88;;;3.70;99.90;;;;;;5032014;28;20068;-56
2021/11/30 09:43:32;;;;;;;2.20;2.00;;;3.70;99.90;;;;;;5032388;28;20052;-61
2021/11/30 09:46:00;;;;;;;2.03;1.90;;;3.60;99.90;;;;;;5014864;28;20504;-59
2021/11/30 09:48:28;;;;;;;2.17;1.98;;;3.70;99.90;;;;;;5032102;28;20432;-57
2021/11/30 09:50:55;;;;;;;2.35;2.03;;;3.70;99.90;;;;;;5032346;28;20104;-56
2021/11/30 09:53:21;;;;;;;2.65;2.33;;;3.70;99.90;;;;;;5032412;28;20033;-60
2021/11/30 09:55:47;;;;;;;6.75;2.10;;;3.80;99.90;;;;;;5011983;28;20028;-60
2021/11/30 09:58:14;;;;;;;3.45;2.08;;;3.80;99.90;;;;;;5032933;28;20516;-59
2021/11/30 10:00:42;;;;;;;2.83;1.95;;;3.80;99.90;;;;;;5053340;28;20132;-58
2021/11/30 10:03:09;;;;;;;2.63;2.10;;;3.90;99.90;;;;;;5033989;28;20495;-60
2021/11/30 10:05:35;;;;;;;2.20;1.80;;;3.90;99.90;;;;;;5033079;28;20136;-61
2021/11/30 10:08:01;;;;;;;2.40;2.10;;;4.00;99.90;;;;;;5015615;28;20048;-65
2021/11/30 10:10:35;;;;;;;2.08;1.88;;;4.00;99.90;;;;;;5014759;28;20036;-63
2021/11/30 10:13:04;;;;;;;4.25;1.92;;;4.00;99.90;;;;;;5016025;28;20137;-63
2021/11/30 10:15:33;;;;;;;2.30;2.00;;;4.00;99.90;;;;;;5015799;28;20107;-64
2021/11/30 10:18:20;;;;;;;2.75;2.08;;;4.10;99.90;;;;;;5089884;27;20397;-65
2021/11/30 10:20:48;;;;;;;1.83;1.73;;;4.10;99.90;;;;;;5089523;28;20060;-66
2021/11/30 10:23:17;;;;;;;2.67;2.13;;;4.10;99.90;;;;;;5109981;28;20055;-63
2021/11/30 10:25:43;;;;;;;2.75;2.10;;;4.20;99.90;;;;;;5086523;28;20028;-64
2021/11/30 10:28:16;;;;;;;2.20;2.00;;;4.20;99.90;;;;;;5069846;28;20139;-64
2021/11/30 10:30:45;;;;;;;2.47;2.20;;;4.20;99.90;;;;;;5071159;28;20426;-65
2021/11/30 10:33:15;;;;;;;2.10;1.98;;;4.20;99.90;;;;;;5078198;28;20476;-64
2021/11/30 10:35:40;;;;;;;2.67;2.15;;;4.20;99.90;;;;;;5089450;28;20063;-63
2021/11/30 10:38:06;;;;;;;2.83;2.35;;;4.20;99.90;;;;;;5076447;28;20392;-64
2021/11/30 10:40:35;;;;;;;2.88;2.15;;;4.20;99.90;;;;;;5069140;28;20052;-64
2021/11/30 10:43:05;;;;;;;2.05;1.95;;;4.20;99.90;;;;;;5069335;28;20394;-64
2021/11/30 10:45:44;;;;;;;2.75;2.17;;;4.20;99.90;;;;;;5069755;28;20098;-63
2021/11/30 10:48:22;;;;;;;2.33;2.00;;;4.20;99.90;;;;;;5069059;28;20593;-64
2021/11/30 10:50:54;;;;;;;2.40;2.05;;;4.10;99.90;;;;;;5087963;28;20032;-63
2021/11/30 10:53:32;;;;;;;1.92;1.83;;;4.20;99.90;;;;;;5095690;28;20492;-64
2021/11/30 10:56:04;;;;;;;2.50;1.95;;;4.20;99.90;;;;;;5090747;28;20055;-65
2021/11/30 10:58:36;;;;;;;2.00;1.88;;;4.20;99.90;;;;;;5091200;28;20604;-62
2021/11/30 11:01:08;;;;;;;2.28;2.08;;;4.20;99.90;;;;;;5079287;28;20044;-63
2021/11/30 11:03:33;;;;;;;2.17;1.95;;;4.30;99.90;;;;;;5081966;28;20028;-64
2021/11/30 11:09:06;;;;;;;2.30;2.00;;;4.30;99.90;;;;;;5080063;28;20036;-65
2021/11/30 11:11:37;;;;;;;3.35;1.90;;;4.30;99.90;;;;;;5088320;28;20048;-62
2021/11/30 11:14:05;;;;;;;2.33;1.90;;;4.40;99.90;;;;;;5067319;28;20511;-65
2021/11/30 11:16:32;;;;;;;2.30;1.90;;;4.40;99.90;;;;;;5072373;28;20032;-66
2021/11/30 11:19:01;;;;;;;3.72;2.10;;;4.40;99.90;;;;;;5087953;28;20030;-63
2021/11/30 11:21:32;;;;;;;3.60;2.15;;;4.40;99.90;;;;;;5086719;28;20044;-62
2021/11/30 11:24:14;;;;;;;2.28;2.00;;;4.40;99.90;;;;;;5091460;28;20449;-63
2021/11/30 11:26:43;;;;;;;2.30;2.10;;;4.50;99.90;;;;;;5096189;28;20028;-64
2021/11/30 11:29:09;;;;;;;2.17;1.98;;;4.50;99.90;;;;;;5076638;28;20067;-63
2021/11/30 11:31:36;;;;;;;3.33;2.50;;;4.50;99.90;;;;;;5074994;28;20032;-63
2021/11/30 11:34:07;;;;;;;2.00;1.80;;;4.50;99.90;;;;;;5056944;28;20040;-63
2021/11/30 11:36:33;;;;;;;2.15;1.90;;;4.50;99.90;;;;;;5075237;28;20048;-65
2021/11/30 11:38:59;;;;;;;2.20;2.00;;;4.50;99.90;;;;;;5075136;28;20028;-65
2021/11/30 11:41:25;;;;;;;2.35;2.00;;;4.50;99.90;;;;;;5075531;28;20029;-62
2021/11/30 11:43:52;;;;;;;2.40;2.00;;;4.50;99.90;;;;;;5075235;28;20024;-64
2021/11/30 11:46:18;;;;;;;3.00;2.10;;;4.60;99.90;;;;;;5075135;28;20067;-62
2021/11/30 11:48:47;;;;;;;2.25;2.05;;;4.60;99.90;;;;;;5074998;28;20058;-63
2021/11/30 11:51:13;;;;;;;2.85;1.85;;;4.50;99.90;;;;;;5074654;28;20041;-64
2021/11/30 11:53:56;;;;;;;3.08;2.30;;;4.50;99.90;;;;;;5074961;28;20051;-64
2021/11/30 11:56:24;;;;;;;2.13;1.92;;;4.60;99.90;;;;;;5065745;28;20079;-63
2021/11/30 11:59:11;;;;;;;2.80;1.88;;;4.60;99.90;;;;;;5061364;28;20055;-64
2021/11/30 12:01:40;;;;;;;2.13;1.92;;;4.60;99.90;;;;;;5074289;28;20025;-63
2021/11/30 12:04:07;;;;;;;3.92;2.33;;;4.60;99.90;;;;;;5054061;28;20072;-63
2021/11/30 12:06:58;;;;;;;2.47;2.05;;;4.60;99.90;;;;;;5055109;28;20408;-64
2021/11/30 12:09:31;;;;;;;2.45;2.15;;;4.70;99.90;;;;;;5055727;28;20040;-63
2021/11/30 12:12:00;;;;;;;3.55;2.05;;;4.70;99.90;;;;;;5075240;28;20041;-64
2021/11/30 12:14:43;;;;;;;2.65;2.08;;;4.70;99.90;;;;;;5074588;28;20094;-64
2021/11/30 12:17:14;;;;;;;2.67;1.90;;;4.70;99.90;;;;;;5075853;28;20111;-64
2021/11/30 12:19:40;;;;;;;2.30;2.00;;;4.70;99.90;;;;;;5075842;28;20063;-62
2021/11/30 12:22:06;;;;;;;2.25;2.05;;;4.70;99.90;;;;;;5085108;28;20063;-63
2021/11/30 12:24:41;;;;;;;2.17;1.98;;;4.70;99.90;;;;;;5082986;28;20415;-62
2021/11/30 12:27:29;;;;;;;3.08;1.75;;;4.70;99.90;;;;;;5058913;28;20029;-63
2021/11/30 12:29:55;;;;;;;2.13;1.70;;;4.70;99.90;;;;;;5053818;28;20520;-65
2021/11/30 12:32:22;;;;;;;1.80;1.70;;;4.80;99.90;;;;;;5052972;28;20032;-63
2021/11/30 12:34:51;;;;;;;1.75;1.60;;;4.70;99.90;;;;;;5071389;28;20389;-63
2021/11/30 12:37:27;;;;;;;2.10;1.73;;;4.80;99.90;;;;;;5079951;28;20044;-63
2021/11/30 12:40:02;;;;;;;2.13;1.90;;;4.80;99.90;;;;;;5071877;28;20064;-63
2021/11/30 12:42:29;;;;;;;2.10;1.90;;;4.80;99.90;;;;;;5073942;28;20035;-64
2021/11/30 12:44:56;;;;;;;1.80;1.70;;;4.80;99.90;;;;;;5072460;28;20036;-63
2021/11/30 12:47:27;;;;;;;2.25;1.90;;;4.80;99.90;;;;;;5072315;28;20039;-63
2021/11/30 12:49:54;;;;;;;2.30;1.90;;;4.80;99.90;;;;;;5073728;28;20036;-64
2021/11/30 12:52:31;;;;;;;4.22;1.98;;;4.90;99.90;;;;;;5074161;28;20048;-64
2021/11/30 12:55:00;;;;;;;3.20;2.33;;;5.00;99.90;;;;;;5075379;28;20039;-63
2021/11/30 12:57:28;;;;;;;2.10;1.90;;;5.00;99.90;;;;;;5074262;28;20465;-64
2021/11/30 13:00:05;;;;;;;1.92;1.73;;;5.00;99.90;;;;;;5072495;28;20032;-64
2021/11/30 13:02:35;;;;;;;6.38;2.60;;;4.90;99.90;;;;;;5072294;28;20056;-64